sensor_id;sensor_type;location;lat;lon;timestamp;P1;durP1;ratioP1;P2;durP2;ratioP2
36351;SDS011;22382;44.768;17.206;2022-08-02T00:00:53;5.65;;;3.33;;
36351;SDS011;22382;44.768;17.206;2022-08-02T00:03:21;5.82;;;4.28;;
36351;SDS011;22382;44.768;17.206;2022-08-02T00:05:49;5.60;;;3.85;;
36351;SDS011;22382;44.768;17.206;2022-08-02T00:08:19;4.82;;;3.47;;
36351;SDS011;22382;44.768;17.206;2022-08-02T00:10:47;7.50;;;4.47;;
36351;SDS011;22382;44.768;17.206;2022-08-02T00:13:14;6.43;;;3.90;;
36351;SDS011;22382;44.768;17.206;2022-08-02T00:15:41;4.93;;;3.80;;
36351;SDS011;22382;44.768;17.206;2022-08-02T00:18:08;5.80;;;4.10;;
36351;SDS011;22382;44.768;17.206;2022-08-02T00:20:35;5.18;;;4.22;;
36351;SDS011;22382;44.768;17.206;2022-08-02T00:23:02;5.88;;;4.40;;
36351;SDS011;22382;44.768;17.206;2022-08-02T00:25:30;7.15;;;4.78;;
36351;SDS011;22382;44.768;17.206;2022-08-02T00:27:57;5.90;;;4.60;;
36351;SDS011;22382;44.768;17.206;2022-08-02T00:30:24;6.00;;;4.60;;
36351;SDS011;22382;44.768;17.206;2022-08-02T00:32:51;6.15;;;3.95;;
36351;SDS011;22382;44.768;17.206;2022-08-02T00:35:18;5.32;;;4.20;;
36351;SDS011;22382;44.768;17.206;2022-08-02T00:37:45;5.40;;;4.32;;
36351;SDS011;22382;44.768;17.206;2022-08-02T00:40:12;5.90;;;4.13;;
36351;SDS011;22382;44.768;17.206;2022-08-02T00:42:39;5.85;;;4.28;;
36351;SDS011;22382;44.768;17.206;2022-08-02T00:45:07;6.25;;;4.25;;
36351;SDS011;22382;44.768;17.206;2022-08-02T00:47:34;6.35;;;4.55;;
36351;SDS011;22382;44.768;17.206;2022-08-02T00:50:01;5.75;;;4.20;;
36351;SDS011;22382;44.768;17.206;2022-08-02T00:52:29;5.30;;;3.85;;
36351;SDS011;22382;44.768;17.206;2022-08-02T00:54:56;5.53;;;4.32;;
36351;SDS011;22382;44.768;17.206;2022-08-02T00:57:23;6.75;;;4.50;;
36351;SDS011;22382;44.768;17.206;2022-08-02T00:59:50;5.28;;;4.00;;
36351;SDS011;22382;44.768;17.206;2022-08-02T01:02:17;6.57;;;4.63;;
36351;SDS011;22382;44.768;17.206;2022-08-02T01:04:44;6.97;;;4.60;;
36351;SDS011;22382;44.768;17.206;2022-08-02T01:07:11;6.50;;;4.38;;
36351;SDS011;22382;44.768;17.206;2022-08-02T01:09:40;7.68;;;5.03;;
36351;SDS011;22382;44.768;17.206;2022-08-02T01:12:08;7.25;;;4.63;;
36351;SDS011;22382;44.768;17.206;2022-08-02T01:14:36;7.45;;;4.65;;
36351;SDS011;22382;44.768;17.206;2022-08-02T01:19:45;7.65;;;4.90;;
36351;SDS011;22382;44.768;17.206;2022-08-02T01:22:41;5.25;;;4.43;;
36351;SDS011;22382;44.768;17.206;2022-08-02T01:30:32;6.43;;;4.55;;
36351;SDS011;22382;44.768;17.206;2022-08-02T01:33:00;7.75;;;4.85;;
36351;SDS011;22382;44.768;17.206;2022-08-02T01:35:32;5.95;;;4.70;;
36351;SDS011;22382;44.768;17.206;2022-08-02T01:38:19;7.20;;;4.60;;
36351;SDS011;22382;44.768;17.206;2022-08-02T01:40:50;5.53;;;4.20;;
36351;SDS011;22382;44.768;17.206;2022-08-02T01:43:19;5.47;;;4.70;;
36351;SDS011;22382;44.768;17.206;2022-08-02T01:45:47;7.75;;;4.75;;
36351;SDS011;22382;44.768;17.206;2022-08-02T01:48:15;6.63;;;4.47;;
36351;SDS011;22382;44.768;17.206;2022-08-02T01:50:44;6.75;;;4.75;;
36351;SDS011;22382;44.768;17.206;2022-08-02T01:53:14;6.75;;;4.78;;
36351;SDS011;22382;44.768;17.206;2022-08-02T01:55:46;6.72;;;4.45;;
36351;SDS011;22382;44.768;17.206;2022-08-02T01:58:25;6.90;;;4.63;;
36351;SDS011;22382;44.768;17.206;2022-08-02T02:00:55;5.07;;;4.22;;
36351;SDS011;22382;44.768;17.206;2022-08-02T02:03:24;6.50;;;4.47;;
36351;SDS011;22382;44.768;17.206;2022-08-02T02:05:53;7.88;;;4.93;;
36351;SDS011;22382;44.768;17.206;2022-08-02T02:08:24;6.00;;;4.45;;
36351;SDS011;22382;44.768;17.206;2022-08-02T02:10:57;9.27;;;5.10;;
36351;SDS011;22382;44.768;17.206;2022-08-02T02:13:46;7.30;;;4.50;;
36351;SDS011;22382;44.768;17.206;2022-08-02T02:16:15;6.25;;;4.60;;
36351;SDS011;22382;44.768;17.206;2022-08-02T02:18:44;6.95;;;4.80;;
36351;SDS011;22382;44.768;17.206;2022-08-02T02:21:14;10.00;;;4.63;;
36351;SDS011;22382;44.768;17.206;2022-08-02T02:23:41;8.32;;;5.20;;
36351;SDS011;22382;44.768;17.206;2022-08-02T02:26:10;6.82;;;4.95;;
36351;SDS011;22382;44.768;17.206;2022-08-02T02:28:42;6.75;;;4.53;;
36351;SDS011;22382;44.768;17.206;2022-08-02T02:31:13;8.55;;;5.10;;
36351;SDS011;22382;44.768;17.206;2022-08-02T02:34:06;7.68;;;5.03;;
36351;SDS011;22382;44.768;17.206;2022-08-02T02:36:36;5.30;;;4.32;;
36351;SDS011;22382;44.768;17.206;2022-08-02T02:39:11;7.05;;;4.75;;
36351;SDS011;22382;44.768;17.206;2022-08-02T02:41:41;6.25;;;4.25;;
36351;SDS011;22382;44.768;17.206;2022-08-02T02:44:10;5.60;;;4.50;;
36351;SDS011;22382;44.768;17.206;2022-08-02T02:46:39;5.47;;;4.55;;
36351;SDS011;22382;44.768;17.206;2022-08-02T02:49:07;6.03;;;4.45;;
36351;SDS011;22382;44.768;17.206;2022-08-02T02:51:39;7.97;;;4.68;;
36351;SDS011;22382;44.768;17.206;2022-08-02T02:54:07;7.72;;;5.20;;
36351;SDS011;22382;44.768;17.206;2022-08-02T02:56:58;6.00;;;4.72;;
36351;SDS011;22382;44.768;17.206;2022-08-02T02:59:26;6.60;;;4.70;;
36351;SDS011;22382;44.768;17.206;2022-08-02T03:01:53;8.07;;;4.97;;
36351;SDS011;22382;44.768;17.206;2022-08-02T03:04:33;5.20;;;4.70;;
36351;SDS011;22382;44.768;17.206;2022-08-02T03:07:22;5.80;;;4.88;;
36351;SDS011;22382;44.768;17.206;2022-08-02T03:09:50;7.75;;;4.65;;
36351;SDS011;22382;44.768;17.206;2022-08-02T03:12:20;8.95;;;5.10;;
36351;SDS011;22382;44.768;17.206;2022-08-02T03:14:57;9.30;;;5.05;;
36351;SDS011;22382;44.768;17.206;2022-08-02T03:17:26;6.05;;;4.95;;
36351;SDS011;22382;44.768;17.206;2022-08-02T03:20:09;9.50;;;4.78;;
36351;SDS011;22382;44.768;17.206;2022-08-02T03:22:41;7.80;;;5.45;;
36351;SDS011;22382;44.768;17.206;2022-08-02T03:25:09;6.90;;;4.63;;
36351;SDS011;22382;44.768;17.206;2022-08-02T03:27:38;6.22;;;4.57;;
36351;SDS011;22382;44.768;17.206;2022-08-02T03:30:06;6.57;;;4.40;;
36351;SDS011;22382;44.768;17.206;2022-08-02T03:32:35;7.65;;;4.70;;
36351;SDS011;22382;44.768;17.206;2022-08-02T03:35:04;5.03;;;4.10;;
36351;SDS011;22382;44.768;17.206;2022-08-02T03:37:32;5.80;;;4.13;;
36351;SDS011;22382;44.768;17.206;2022-08-02T03:40:01;6.03;;;4.32;;
36351;SDS011;22382;44.768;17.206;2022-08-02T03:42:30;6.22;;;4.45;;
36351;SDS011;22382;44.768;17.206;2022-08-02T03:44:57;8.10;;;4.70;;
36351;SDS011;22382;44.768;17.206;2022-08-02T03:47:31;6.97;;;4.50;;
36351;SDS011;22382;44.768;17.206;2022-08-02T03:49:59;6.55;;;4.95;;
36351;SDS011;22382;44.768;17.206;2022-08-02T03:52:27;6.55;;;5.00;;
36351;SDS011;22382;44.768;17.206;2022-08-02T03:54:55;7.60;;;4.82;;
36351;SDS011;22382;44.768;17.206;2022-08-02T03:57:25;6.47;;;4.55;;
36351;SDS011;22382;44.768;17.206;2022-08-02T03:59:52;8.15;;;4.90;;
36351;SDS011;22382;44.768;17.206;2022-08-02T04:02:19;8.52;;;4.53;;
36351;SDS011;22382;44.768;17.206;2022-08-02T04:04:46;6.63;;;4.40;;
36351;SDS011;22382;44.768;17.206;2022-08-02T04:07:13;7.40;;;4.63;;
36351;SDS011;22382;44.768;17.206;2022-08-02T04:10:00;5.68;;;4.25;;
36351;SDS011;22382;44.768;17.206;2022-08-02T04:12:27;6.07;;;4.50;;
36351;SDS011;22382;44.768;17.206;2022-08-02T04:14:54;6.43;;;4.82;;
36351;SDS011;22382;44.768;17.206;2022-08-02T04:17:22;5.80;;;4.53;;
36351;SDS011;22382;44.768;17.206;2022-08-02T04:19:54;4.30;;;3.80;;
36351;SDS011;22382;44.768;17.206;2022-08-02T04:22:27;6.95;;;4.22;;
36351;SDS011;22382;44.768;17.206;2022-08-02T04:24:57;4.72;;;4.03;;
36351;SDS011;22382;44.768;17.206;2022-08-02T04:27:26;6.38;;;4.35;;
36351;SDS011;22382;44.768;17.206;2022-08-02T04:30:15;6.75;;;4.10;;
36351;SDS011;22382;44.768;17.206;2022-08-02T04:32:43;8.73;;;4.57;;
36351;SDS011;22382;44.768;17.206;2022-08-02T04:35:10;5.18;;;3.55;;
36351;SDS011;22382;44.768;17.206;2022-08-02T04:37:46;4.60;;;3.70;;
36351;SDS011;22382;44.768;17.206;2022-08-02T04:40:34;6.18;;;3.60;;
36351;SDS011;22382;44.768;17.206;2022-08-02T04:43:01;18.27;;;12.52;;
36351;SDS011;22382;44.768;17.206;2022-08-02T04:45:28;6.32;;;4.93;;
36351;SDS011;22382;44.768;17.206;2022-08-02T04:47:56;7.15;;;5.10;;
36351;SDS011;22382;44.768;17.206;2022-08-02T04:50:31;8.55;;;3.90;;
36351;SDS011;22382;44.768;17.206;2022-08-02T04:52:59;5.38;;;3.92;;
36351;SDS011;22382;44.768;17.206;2022-08-02T04:55:26;9.32;;;4.90;;
36351;SDS011;22382;44.768;17.206;2022-08-02T04:57:54;8.90;;;5.10;;
36351;SDS011;22382;44.768;17.206;2022-08-02T05:00:31;7.85;;;4.85;;
36351;SDS011;22382;44.768;17.206;2022-08-02T05:02:59;12.20;;;6.50;;
36351;SDS011;22382;44.768;17.206;2022-08-02T05:05:27;9.02;;;6.10;;
36351;SDS011;22382;44.768;17.206;2022-08-02T05:07:54;11.88;;;5.80;;
36351;SDS011;22382;44.768;17.206;2022-08-02T05:10:21;7.28;;;4.85;;
36351;SDS011;22382;44.768;17.206;2022-08-02T05:12:48;8.25;;;4.78;;
36351;SDS011;22382;44.768;17.206;2022-08-02T05:15:16;8.15;;;4.70;;
36351;SDS011;22382;44.768;17.206;2022-08-02T05:17:44;11.40;;;5.35;;
36351;SDS011;22382;44.768;17.206;2022-08-02T05:20:16;6.50;;;4.90;;
36351;SDS011;22382;44.768;17.206;2022-08-02T05:22:44;10.63;;;5.53;;
36351;SDS011;22382;44.768;17.206;2022-08-02T05:25:12;9.43;;;5.03;;
36351;SDS011;22382;44.768;17.206;2022-08-02T05:27:39;8.90;;;5.47;;
36351;SDS011;22382;44.768;17.206;2022-08-02T05:30:07;11.95;;;5.35;;
36351;SDS011;22382;44.768;17.206;2022-08-02T05:32:41;10.65;;;5.57;;
36351;SDS011;22382;44.768;17.206;2022-08-02T05:35:18;8.85;;;5.88;;
36351;SDS011;22382;44.768;17.206;2022-08-02T05:37:47;14.38;;;6.38;;
36351;SDS011;22382;44.768;17.206;2022-08-02T05:40:15;11.07;;;7.38;;
36351;SDS011;22382;44.768;17.206;2022-08-02T05:42:50;22.17;;;8.07;;
36351;SDS011;22382;44.768;17.206;2022-08-02T05:45:18;18.60;;;10.48;;
36351;SDS011;22382;44.768;17.206;2022-08-02T05:47:45;16.83;;;10.85;;
36351;SDS011;22382;44.768;17.206;2022-08-02T05:50:12;20.27;;;10.27;;
36351;SDS011;22382;44.768;17.206;2022-08-02T05:55:07;14.63;;;9.70;;
36351;SDS011;22382;44.768;17.206;2022-08-02T05:57:52;17.83;;;10.55;;
36351;SDS011;22382;44.768;17.206;2022-08-02T06:00:41;12.57;;;8.55;;
36351;SDS011;22382;44.768;17.206;2022-08-02T06:05:52;12.02;;;8.68;;
36351;SDS011;22382;44.768;17.206;2022-08-02T06:08:42;11.93;;;7.53;;
36351;SDS011;22382;44.768;17.206;2022-08-02T06:11:16;10.80;;;6.47;;
36351;SDS011;22382;44.768;17.206;2022-08-02T06:13:47;8.48;;;6.18;;
36351;SDS011;22382;44.768;17.206;2022-08-02T06:16:15;10.43;;;5.78;;
36351;SDS011;22382;44.768;17.206;2022-08-02T06:18:57;8.35;;;6.15;;
36351;SDS011;22382;44.768;17.206;2022-08-02T06:21:25;11.48;;;6.35;;
36351;SDS011;22382;44.768;17.206;2022-08-02T06:24:13;9.32;;;5.47;;
36351;SDS011;22382;44.768;17.206;2022-08-02T06:26:44;12.43;;;7.60;;
36351;SDS011;22382;44.768;17.206;2022-08-02T06:29:12;12.63;;;8.02;;
36351;SDS011;22382;44.768;17.206;2022-08-02T06:31:40;10.77;;;7.82;;
36351;SDS011;22382;44.768;17.206;2022-08-02T06:34:10;11.93;;;7.82;;
36351;SDS011;22382;44.768;17.206;2022-08-02T06:36:41;11.85;;;7.72;;
36351;SDS011;22382;44.768;17.206;2022-08-02T06:39:18;11.35;;;6.85;;
36351;SDS011;22382;44.768;17.206;2022-08-02T06:41:53;11.07;;;7.10;;
36351;SDS011;22382;44.768;17.206;2022-08-02T06:44:23;11.43;;;7.25;;
36351;SDS011;22382;44.768;17.206;2022-08-02T06:47:10;13.07;;;6.53;;
36351;SDS011;22382;44.768;17.206;2022-08-02T06:49:39;14.70;;;9.48;;
36351;SDS011;22382;44.768;17.206;2022-08-02T06:52:26;9.98;;;6.63;;
36351;SDS011;22382;44.768;17.206;2022-08-02T06:54:56;5.85;;;4.57;;
36351;SDS011;22382;44.768;17.206;2022-08-02T06:57:25;6.50;;;3.65;;
36351;SDS011;22382;44.768;17.206;2022-08-02T06:59:53;5.22;;;3.58;;
36351;SDS011;22382;44.768;17.206;2022-08-02T07:02:20;3.47;;;2.78;;
36351;SDS011;22382;44.768;17.206;2022-08-02T07:04:48;4.38;;;2.83;;
36351;SDS011;22382;44.768;17.206;2022-08-02T07:07:16;6.50;;;2.88;;
36351;SDS011;22382;44.768;17.206;2022-08-02T07:09:43;4.47;;;2.40;;
36351;SDS011;22382;44.768;17.206;2022-08-02T07:12:26;6.40;;;4.03;;
36351;SDS011;22382;44.768;17.206;2022-08-02T07:14:57;8.67;;;6.30;;
36351;SDS011;22382;44.768;17.206;2022-08-02T07:17:26;10.57;;;6.30;;
36351;SDS011;22382;44.768;17.206;2022-08-02T07:19:53;8.55;;;5.50;;
36351;SDS011;22382;44.768;17.206;2022-08-02T07:22:21;8.10;;;5.60;;
36351;SDS011;22382;44.768;17.206;2022-08-02T07:24:49;8.73;;;5.07;;
36351;SDS011;22382;44.768;17.206;2022-08-02T07:27:17;6.50;;;4.38;;
36351;SDS011;22382;44.768;17.206;2022-08-02T07:29:45;9.57;;;4.85;;
36351;SDS011;22382;44.768;17.206;2022-08-02T07:32:16;7.75;;;4.63;;
36351;SDS011;22382;44.768;17.206;2022-08-02T07:34:44;6.93;;;4.45;;
36351;SDS011;22382;44.768;17.206;2022-08-02T07:37:18;8.75;;;4.50;;
36351;SDS011;22382;44.768;17.206;2022-08-02T07:40:06;6.60;;;4.13;;
36351;SDS011;22382;44.768;17.206;2022-08-02T07:42:39;7.40;;;4.15;;
36351;SDS011;22382;44.768;17.206;2022-08-02T07:45:07;7.40;;;3.88;;
36351;SDS011;22382;44.768;17.206;2022-08-02T07:47:37;8.30;;;4.20;;
36351;SDS011;22382;44.768;17.206;2022-08-02T07:50:05;10.63;;;4.60;;
36351;SDS011;22382;44.768;17.206;2022-08-02T07:52:33;7.72;;;4.30;;
36351;SDS011;22382;44.768;17.206;2022-08-02T07:55:00;5.90;;;3.90;;
36351;SDS011;22382;44.768;17.206;2022-08-02T07:57:27;8.95;;;4.43;;
36351;SDS011;22382;44.768;17.206;2022-08-02T07:59:54;7.47;;;4.75;;
36351;SDS011;22382;44.768;17.206;2022-08-02T08:02:21;7.30;;;3.88;;
36351;SDS011;22382;44.768;17.206;2022-08-02T08:04:51;6.78;;;3.28;;
36351;SDS011;22382;44.768;17.206;2022-08-02T08:07:18;4.63;;;2.70;;
36351;SDS011;22382;44.768;17.206;2022-08-02T08:09:46;3.25;;;2.08;;
36351;SDS011;22382;44.768;17.206;2022-08-02T08:12:21;2.95;;;1.90;;
36351;SDS011;22382;44.768;17.206;2022-08-02T08:14:49;3.22;;;1.95;;
36351;SDS011;22382;44.768;17.206;2022-08-02T08:17:16;5.30;;;1.80;;
36351;SDS011;22382;44.768;17.206;2022-08-02T08:19:43;4.03;;;2.03;;
36351;SDS011;22382;44.768;17.206;2022-08-02T08:22:18;2.15;;;1.90;;
36351;SDS011;22382;44.768;17.206;2022-08-02T08:24:45;6.38;;;2.20;;
36351;SDS011;22382;44.768;17.206;2022-08-02T08:27:14;4.22;;;1.73;;
36351;SDS011;22382;44.768;17.206;2022-08-02T08:29:42;2.10;;;1.35;;
36351;SDS011;22382;44.768;17.206;2022-08-02T08:32:09;4.28;;;1.60;;
36351;SDS011;22382;44.768;17.206;2022-08-02T08:34:43;2.72;;;1.90;;
36351;SDS011;22382;44.768;17.206;2022-08-02T08:37:11;2.10;;;1.50;;
36351;SDS011;22382;44.768;17.206;2022-08-02T08:39:46;2.60;;;1.80;;
36351;SDS011;22382;44.768;17.206;2022-08-02T08:42:26;3.55;;;1.90;;
36351;SDS011;22382;44.768;17.206;2022-08-02T08:44:56;3.70;;;1.60;;
36351;SDS011;22382;44.768;17.206;2022-08-02T08:47:37;3.95;;;1.85;;
36351;SDS011;22382;44.768;17.206;2022-08-02T08:50:07;2.65;;;1.83;;
36351;SDS011;22382;44.768;17.206;2022-08-02T08:53:05;2.40;;;1.55;;
36351;SDS011;22382;44.768;17.206;2022-08-02T08:55:34;2.75;;;1.75;;
36351;SDS011;22382;44.768;17.206;2022-08-02T08:58:03;4.20;;;1.90;;
36351;SDS011;22382;44.768;17.206;2022-08-02T09:00:32;5.03;;;1.63;;
36351;SDS011;22382;44.768;17.206;2022-08-02T09:03:02;6.65;;;1.83;;
36351;SDS011;22382;44.768;17.206;2022-08-02T09:05:30;2.00;;;1.55;;
36351;SDS011;22382;44.768;17.206;2022-08-02T09:08:00;2.03;;;1.70;;
36351;SDS011;22382;44.768;17.206;2022-08-02T09:13:05;2.22;;;1.50;;
36351;SDS011;22382;44.768;17.206;2022-08-02T09:18:35;2.25;;;1.58;;
36351;SDS011;22382;44.768;17.206;2022-08-02T09:21:05;3.22;;;1.90;;
36351;SDS011;22382;44.768;17.206;2022-08-02T09:26:02;2.70;;;1.60;;
36351;SDS011;22382;44.768;17.206;2022-08-02T09:28:38;2.65;;;1.95;;
36351;SDS011;22382;44.768;17.206;2022-08-02T09:31:13;3.58;;;1.88;;
36351;SDS011;22382;44.768;17.206;2022-08-02T09:33:44;3.70;;;1.88;;
36351;SDS011;22382;44.768;17.206;2022-08-02T09:36:17;2.05;;;1.60;;
36351;SDS011;22382;44.768;17.206;2022-08-02T09:38:54;7.22;;;1.90;;
36351;SDS011;22382;44.768;17.206;2022-08-02T09:41:23;3.22;;;1.70;;
36351;SDS011;22382;44.768;17.206;2022-08-02T09:43:54;3.08;;;1.50;;
36351;SDS011;22382;44.768;17.206;2022-08-02T09:46:32;6.30;;;1.80;;
36351;SDS011;22382;44.768;17.206;2022-08-02T09:49:05;2.22;;;1.60;;
36351;SDS011;22382;44.768;17.206;2022-08-02T09:54:03;2.35;;;1.63;;
36351;SDS011;22382;44.768;17.206;2022-08-02T09:56:39;2.78;;;1.60;;
36351;SDS011;22382;44.768;17.206;2022-08-02T09:59:13;1.92;;;1.67;;
36351;SDS011;22382;44.768;17.206;2022-08-02T10:01:42;3.80;;;1.70;;
36351;SDS011;22382;44.768;17.206;2022-08-02T10:04:28;4.07;;;1.70;;
36351;SDS011;22382;44.768;17.206;2022-08-02T10:06:59;2.95;;;1.60;;
36351;SDS011;22382;44.768;17.206;2022-08-02T10:09:29;3.73;;;1.33;;
36351;SDS011;22382;44.768;17.206;2022-08-02T10:11:57;3.15;;;1.50;;
36351;SDS011;22382;44.768;17.206;2022-08-02T10:14:25;1.90;;;1.30;;
36351;SDS011;22382;44.768;17.206;2022-08-02T10:16:53;3.15;;;1.25;;
36351;SDS011;22382;44.768;17.206;2022-08-02T10:19:23;3.15;;;1.48;;
36351;SDS011;22382;44.768;17.206;2022-08-02T10:22:12;3.20;;;1.50;;
36351;SDS011;22382;44.768;17.206;2022-08-02T10:24:41;2.55;;;1.70;;
36351;SDS011;22382;44.768;17.206;2022-08-02T10:27:17;3.40;;;1.38;;
36351;SDS011;22382;44.768;17.206;2022-08-02T10:29:47;4.00;;;1.50;;
36351;SDS011;22382;44.768;17.206;2022-08-02T10:32:25;2.42;;;1.67;;
36351;SDS011;22382;44.768;17.206;2022-08-02T10:37:59;1.92;;;1.17;;
36351;SDS011;22382;44.768;17.206;2022-08-02T10:40:41;3.28;;;1.50;;
36351;SDS011;22382;44.768;17.206;2022-08-02T10:43:57;2.00;;;1.40;;
36351;SDS011;22382;44.768;17.206;2022-08-02T10:54:28;2.55;;;1.50;;
36351;SDS011;22382;44.768;17.206;2022-08-02T10:56:58;2.20;;;1.50;;
36351;SDS011;22382;44.768;17.206;2022-08-02T10:59:30;3.20;;;1.30;;
36351;SDS011;22382;44.768;17.206;2022-08-02T11:02:03;1.77;;;1.20;;
36351;SDS011;22382;44.768;17.206;2022-08-02T11:07:08;2.17;;;1.33;;
36351;SDS011;22382;44.768;17.206;2022-08-02T11:09:46;4.25;;;1.30;;
36351;SDS011;22382;44.768;17.206;2022-08-02T11:12:16;4.35;;;1.40;;
36351;SDS011;22382;44.768;17.206;2022-08-02T11:14:45;4.03;;;1.38;;
36351;SDS011;22382;44.768;17.206;2022-08-02T11:17:52;2.90;;;1.60;;
36351;SDS011;22382;44.768;17.206;2022-08-02T11:20:21;1.88;;;1.50;;
36351;SDS011;22382;44.768;17.206;2022-08-02T11:22:51;2.63;;;1.40;;
36351;SDS011;22382;44.768;17.206;2022-08-02T11:27:53;4.20;;;1.90;;
36351;SDS011;22382;44.768;17.206;2022-08-02T11:30:23;5.22;;;1.90;;
36351;SDS011;22382;44.768;17.206;2022-08-02T11:33:01;3.42;;;1.70;;
36351;SDS011;22382;44.768;17.206;2022-08-02T11:38:10;2.42;;;1.70;;
36351;SDS011;22382;44.768;17.206;2022-08-02T11:40:41;4.50;;;1.65;;
36351;SDS011;22382;44.768;17.206;2022-08-02T11:43:17;4.53;;;1.95;;
36351;SDS011;22382;44.768;17.206;2022-08-02T11:45:46;2.45;;;1.98;;
36351;SDS011;22382;44.768;17.206;2022-08-02T11:48:14;3.20;;;1.63;;
36351;SDS011;22382;44.768;17.206;2022-08-02T11:53:40;3.40;;;1.90;;
36351;SDS011;22382;44.768;17.206;2022-08-02T11:56:08;4.70;;;2.17;;
36351;SDS011;22382;44.768;17.206;2022-08-02T11:58:36;4.28;;;1.70;;
36351;SDS011;22382;44.768;17.206;2022-08-02T12:01:07;5.97;;;2.03;;
36351;SDS011;22382;44.768;17.206;2022-08-02T12:03:37;3.70;;;2.10;;
36351;SDS011;22382;44.768;17.206;2022-08-02T12:06:05;2.55;;;1.90;;
36351;SDS011;22382;44.768;17.206;2022-08-02T12:08:41;3.42;;;1.80;;
36351;SDS011;22382;44.768;17.206;2022-08-02T12:11:19;6.28;;;1.88;;
36351;SDS011;22382;44.768;17.206;2022-08-02T12:13:47;6.78;;;2.25;;
36351;SDS011;22382;44.768;17.206;2022-08-02T12:16:22;3.42;;;1.90;;
36351;SDS011;22382;44.768;17.206;2022-08-02T12:19:08;2.58;;;1.95;;
36351;SDS011;22382;44.768;17.206;2022-08-02T12:21:45;7.47;;;1.90;;
36351;SDS011;22382;44.768;17.206;2022-08-02T12:24:12;4.32;;;2.15;;
36351;SDS011;22382;44.768;17.206;2022-08-02T12:26:51;4.93;;;2.10;;
36351;SDS011;22382;44.768;17.206;2022-08-02T12:29:27;5.00;;;1.67;;
36351;SDS011;22382;44.768;17.206;2022-08-02T12:32:22;4.00;;;1.95;;
36351;SDS011;22382;44.768;17.206;2022-08-02T12:37:27;3.35;;;1.80;;
36351;SDS011;22382;44.768;17.206;2022-08-02T12:39:54;4.65;;;2.15;;
36351;SDS011;22382;44.768;17.206;2022-08-02T12:42:21;2.45;;;1.80;;
36351;SDS011;22382;44.768;17.206;2022-08-02T12:44:56;3.47;;;1.65;;
36351;SDS011;22382;44.768;17.206;2022-08-02T12:47:24;4.80;;;1.85;;
36351;SDS011;22382;44.768;17.206;2022-08-02T12:52:47;5.10;;;2.00;;
36351;SDS011;22382;44.768;17.206;2022-08-02T12:58:00;2.40;;;1.50;;
36351;SDS011;22382;44.768;17.206;2022-08-02T13:00:30;2.38;;;1.80;;
36351;SDS011;22382;44.768;17.206;2022-08-02T13:03:01;4.75;;;1.95;;
36351;SDS011;22382;44.768;17.206;2022-08-02T13:05:30;4.47;;;2.38;;
36351;SDS011;22382;44.768;17.206;2022-08-02T13:08:21;5.47;;;2.33;;
36351;SDS011;22382;44.768;17.206;2022-08-02T13:10:48;3.75;;;2.30;;
36351;SDS011;22382;44.768;17.206;2022-08-02T13:13:15;2.92;;;1.65;;
36351;SDS011;22382;44.768;17.206;2022-08-02T13:15:42;4.43;;;1.65;;
36351;SDS011;22382;44.768;17.206;2022-08-02T13:18:15;4.10;;;1.88;;
36351;SDS011;22382;44.768;17.206;2022-08-02T13:20:43;2.25;;;1.98;;
36351;SDS011;22382;44.768;17.206;2022-08-02T13:23:11;2.30;;;1.85;;
36351;SDS011;22382;44.768;17.206;2022-08-02T13:25:47;2.75;;;1.75;;
36351;SDS011;22382;44.768;17.206;2022-08-02T13:28:18;3.67;;;1.80;;
36351;SDS011;22382;44.768;17.206;2022-08-02T13:30:45;2.95;;;1.85;;
36351;SDS011;22382;44.768;17.206;2022-08-02T13:33:13;2.63;;;1.85;;
36351;SDS011;22382;44.768;17.206;2022-08-02T13:35:42;3.03;;;1.65;;
36351;SDS011;22382;44.768;17.206;2022-08-02T13:38:10;2.90;;;1.90;;
36351;SDS011;22382;44.768;17.206;2022-08-02T13:40:37;3.22;;;1.85;;
36351;SDS011;22382;44.768;17.206;2022-08-02T13:43:30;4.13;;;2.00;;
36351;SDS011;22382;44.768;17.206;2022-08-02T13:46:17;4.60;;;1.92;;
36351;SDS011;22382;44.768;17.206;2022-08-02T13:48:54;5.60;;;1.75;;
36351;SDS011;22382;44.768;17.206;2022-08-02T13:51:21;4.30;;;1.77;;
36351;SDS011;22382;44.768;17.206;2022-08-02T13:53:48;3.05;;;1.83;;
36351;SDS011;22382;44.768;17.206;2022-08-02T13:56:15;5.60;;;2.10;;
36351;SDS011;22382;44.768;17.206;2022-08-02T13:58:42;2.97;;;1.83;;
36351;SDS011;22382;44.768;17.206;2022-08-02T14:01:09;2.05;;;1.70;;
36351;SDS011;22382;44.768;17.206;2022-08-02T14:03:36;4.18;;;2.28;;
36351;SDS011;22382;44.768;17.206;2022-08-02T14:06:24;3.33;;;2.00;;
36351;SDS011;22382;44.768;17.206;2022-08-02T14:08:51;5.50;;;1.70;;
36351;SDS011;22382;44.768;17.206;2022-08-02T14:11:18;12.45;;;2.00;;
36351;SDS011;22382;44.768;17.206;2022-08-02T14:13:45;9.27;;;2.22;;
36351;SDS011;22382;44.768;17.206;2022-08-02T14:16:12;6.85;;;1.90;;
36351;SDS011;22382;44.768;17.206;2022-08-02T14:18:39;4.13;;;2.00;;
36351;SDS011;22382;44.768;17.206;2022-08-02T14:21:07;3.15;;;1.98;;
36351;SDS011;22382;44.768;17.206;2022-08-02T14:23:34;2.97;;;1.90;;
36351;SDS011;22382;44.768;17.206;2022-08-02T14:26:16;2.15;;;1.30;;
36351;SDS011;22382;44.768;17.206;2022-08-02T14:28:53;4.40;;;1.67;;
36351;SDS011;22382;44.768;17.206;2022-08-02T14:31:20;3.88;;;1.55;;
36351;SDS011;22382;44.768;17.206;2022-08-02T14:33:47;2.58;;;1.63;;
36351;SDS011;22382;44.768;17.206;2022-08-02T14:36:14;5.25;;;1.70;;
36351;SDS011;22382;44.768;17.206;2022-08-02T14:38:53;2.00;;;1.48;;
36351;SDS011;22382;44.768;17.206;2022-08-02T14:41:20;2.78;;;1.52;;
36351;SDS011;22382;44.768;17.206;2022-08-02T14:43:48;4.07;;;1.40;;
36351;SDS011;22382;44.768;17.206;2022-08-02T14:46:31;2.05;;;1.50;;
36351;SDS011;22382;44.768;17.206;2022-08-02T14:48:58;2.70;;;1.70;;
36351;SDS011;22382;44.768;17.206;2022-08-02T14:51:30;4.35;;;1.90;;
36351;SDS011;22382;44.768;17.206;2022-08-02T14:53:58;1.85;;;1.40;;
36351;SDS011;22382;44.768;17.206;2022-08-02T14:56:28;2.88;;;1.70;;
36351;SDS011;22382;44.768;17.206;2022-08-02T14:58:56;3.35;;;1.98;;
36351;SDS011;22382;44.768;17.206;2022-08-02T15:01:23;3.22;;;1.88;;
36351;SDS011;22382;44.768;17.206;2022-08-02T15:03:51;2.88;;;1.70;;
36351;SDS011;22382;44.768;17.206;2022-08-02T15:06:18;2.55;;;1.67;;
36351;SDS011;22382;44.768;17.206;2022-08-02T15:08:45;3.97;;;1.55;;
36351;SDS011;22382;44.768;17.206;2022-08-02T15:11:12;7.38;;;1.92;;
36351;SDS011;22382;44.768;17.206;2022-08-02T15:13:40;1.80;;;1.42;;
36351;SDS011;22382;44.768;17.206;2022-08-02T15:16:08;3.65;;;1.83;;
36351;SDS011;22382;44.768;17.206;2022-08-02T15:18:35;3.25;;;1.80;;
36351;SDS011;22382;44.768;17.206;2022-08-02T15:21:02;4.28;;;1.38;;
36351;SDS011;22382;44.768;17.206;2022-08-02T15:23:49;2.60;;;1.60;;
36351;SDS011;22382;44.768;17.206;2022-08-02T15:26:16;2.22;;;1.50;;
36351;SDS011;22382;44.768;17.206;2022-08-02T15:28:46;3.33;;;1.55;;
36351;SDS011;22382;44.768;17.206;2022-08-02T15:31:21;6.65;;;1.83;;
36351;SDS011;22382;44.768;17.206;2022-08-02T15:33:59;3.33;;;1.90;;
36351;SDS011;22382;44.768;17.206;2022-08-02T15:36:27;3.10;;;1.65;;
36351;SDS011;22382;44.768;17.206;2022-08-02T15:38:54;5.03;;;1.70;;
36351;SDS011;22382;44.768;17.206;2022-08-02T15:41:23;5.57;;;1.63;;
36351;SDS011;22382;44.768;17.206;2022-08-02T15:43:50;2.35;;;1.55;;
36351;SDS011;22382;44.768;17.206;2022-08-02T15:46:26;2.25;;;1.50;;
36351;SDS011;22382;44.768;17.206;2022-08-02T15:48:57;3.50;;;1.45;;
36351;SDS011;22382;44.768;17.206;2022-08-02T15:51:25;4.57;;;1.73;;